EDDG/FMO METAR and TAF weather

Enter ICAO airport designator
Station Type Date Time Source
EDDG METAR 2021/01/22 06:50 UTC NOAA

EDDG 220650Z 23010KT 9999 BKN012 04/02 Q0989 NOSIG


Station Type Date Time Source
EDDG Decoded METAR 2021/01/22 06:50 UTC NOAA

Muenster / Osnabrueck, Germany (EDDG) 52-08N 007-42E 53M
Jan 22, 2021 - 01:50 AM EST / 2021.01.22 0650 UTC
Wind: from the SW (230 degrees) at 12 MPH (10 KT):0
Visibility: greater than 7 mile(s):0
Sky conditions: mostly cloudy
Temperature: 39 F (4 C)
Dew Point: 35 F (2 C)
Relative Humidity: 86%
Pressure (altimeter): 29.21 in. Hg (0989 hPa)
ob: EDDG 220650Z 23010KT 9999 BKN012 04/02 Q0989 NOSIG
cycle: 7

Station Type Date Time Source
EDDG TAF 2021/01/22 06:27 UTC NOAA

TAF EDDG 220500Z 2206/2306 24013KT 9999 OVC009
BECMG 2206/2208 BKN020
BECMG 2213/2215 23005KT
BECMG 2220/2222 VRB03KT

Example: see airport list